Tavistock, United Kingdom
Current Conditions -  °F | °C
As of 1:50 AM on Friday 19 Dec 2014 (Local Time) from EGTE Reporting Station
Light Rain Light Rain  
Wind Chill: 12°   Ceiling: 2000
Heat Index: 12°   Visibility: 6mi
Dew Point: 11°   Wind: 10mph
Humidity: 94%   Direction: 230°SW
Pressure: 29.85"   Gusts: NA
Location:  50.55°N, 4.15°W
Report Text: EGTE 190150Z 23009KT 9999 -RA FEW015 BKN020 12/11 Q1011
Loading
Personal Weather Stations






























Interactive Weather Map New forecast layout! Learn more

10-Day Weather Forecast

Advertisements
Track Severe Weather on mobile